Algonac, Michigan
Current Conditions -  °F | °C
As of 1:55 PM on Thursday 30 Oct 2014 (Local Time) from KMTC Reporting Station
Broken Clouds Broken Clouds  
Wind Chill: 50°   Ceiling: 4100
Heat Index: 50°   Visibility: 12mi
Dew Point: 33°   Wind: 6mph
Humidity: 53%   Direction: 240°WSW
Pressure: 30.07"   Gusts: NA
Location:  42.62°N, 82.53°W
Report Text: KMTC 301755Z 24005KT 12SM BKN041 BKN180 10/01 A3007 RMK SLP194 T01010008 1010320035 58015
Loading
Personal Weather Stations






























Interactive Weather Map
Tropical Storm Tracking
New forecast layout! Learn more

10-Day Weather Forecast

Advertisements
Track Severe Weather on mobile